sensor_id;sensor_type;location;lat;lon;timestamp;P1;durP1;ratioP1;P2;durP2;ratioP2
151;SDS011;68;48.792;9.164;2023-07-29T00:00:03;30.13;;;14.50;;
151;SDS011;68;48.792;9.164;2023-07-29T00:02:31;22.90;;;11.40;;
151;SDS011;68;48.792;9.164;2023-07-29T00:04:58;28.47;;;14.30;;
151;SDS011;68;48.792;9.164;2023-07-29T00:07:25;30.17;;;15.87;;
151;SDS011;68;48.792;9.164;2023-07-29T00:09:52;27.40;;;14.33;;
151;SDS011;68;48.792;9.164;2023-07-29T00:12:20;28.10;;;12.97;;
151;SDS011;68;48.792;9.164;2023-07-29T00:14:47;36.20;;;17.00;;
151;SDS011;68;48.792;9.164;2023-07-29T00:17:13;27.10;;;16.27;;
151;SDS011;68;48.792;9.164;2023-07-29T00:19:40;33.40;;;12.57;;
151;SDS011;68;48.792;9.164;2023-07-29T00:22:07;24.60;;;14.20;;
151;SDS011;68;48.792;9.164;2023-07-29T00:24:34;24.10;;;13.97;;
151;SDS011;68;48.792;9.164;2023-07-29T00:27:01;32.27;;;17.53;;
151;SDS011;68;48.792;9.164;2023-07-29T00:29:29;22.60;;;12.17;;
151;SDS011;68;48.792;9.164;2023-07-29T00:31:56;24.97;;;14.30;;
151;SDS011;68;48.792;9.164;2023-07-29T00:34:22;22.17;;;10.37;;
151;SDS011;68;48.792;9.164;2023-07-29T00:36:49;28.57;;;16.63;;
151;SDS011;68;48.792;9.164;2023-07-29T00:39:16;29.27;;;15.77;;
151;SDS011;68;48.792;9.164;2023-07-29T00:41:44;22.73;;;12.30;;
151;SDS011;68;48.792;9.164;2023-07-29T00:44:10;24.77;;;15.17;;
151;SDS011;68;48.792;9.164;2023-07-29T00:46:39;25.97;;;13.00;;
151;SDS011;68;48.792;9.164;2023-07-29T00:49:07;21.47;;;11.77;;
151;SDS011;68;48.792;9.164;2023-07-29T00:51:34;29.80;;;15.43;;
151;SDS011;68;48.792;9.164;2023-07-29T00:54:01;25.40;;;17.00;;
151;SDS011;68;48.792;9.164;2023-07-29T00:56:28;25.70;;;13.77;;
151;SDS011;68;48.792;9.164;2023-07-29T00:58:55;25.57;;;14.77;;
151;SDS011;68;48.792;9.164;2023-07-29T01:01:26;31.67;;;15.27;;
151;SDS011;68;48.792;9.164;2023-07-29T01:03:54;25.40;;;14.50;;
151;SDS011;68;48.792;9.164;2023-07-29T01:06:23;31.73;;;16.47;;
151;SDS011;68;48.792;9.164;2023-07-29T01:08:56;23.90;;;13.67;;
151;SDS011;68;48.792;9.164;2023-07-29T01:11:33;24.30;;;13.43;;
151;SDS011;68;48.792;9.164;2023-07-29T01:14:05;23.10;;;12.27;;
151;SDS011;68;48.792;9.164;2023-07-29T01:16:39;23.13;;;14.00;;
151;SDS011;68;48.792;9.164;2023-07-29T01:19:12;26.20;;;13.70;;
151;SDS011;68;48.792;9.164;2023-07-29T01:21:57;22.00;;;8.60;;
151;SDS011;68;48.792;9.164;2023-07-29T01:24:26;20.10;;;9.87;;
151;SDS011;68;48.792;9.164;2023-07-29T01:26:53;23.07;;;11.47;;
151;SDS011;68;48.792;9.164;2023-07-29T01:29:20;22.50;;;9.90;;
151;SDS011;68;48.792;9.164;2023-07-29T01:31:47;26.77;;;11.40;;
151;SDS011;68;48.792;9.164;2023-07-29T01:34:21;20.80;;;9.10;;
151;SDS011;68;48.792;9.164;2023-07-29T01:36:52;25.70;;;13.17;;
151;SDS011;68;48.792;9.164;2023-07-29T01:39:23;23.27;;;11.23;;
151;SDS011;68;48.792;9.164;2023-07-29T01:41:52;22.20;;;11.87;;
151;SDS011;68;48.792;9.164;2023-07-29T01:44:20;26.20;;;14.87;;
151;SDS011;68;48.792;9.164;2023-07-29T01:46:47;26.57;;;15.03;;
151;SDS011;68;48.792;9.164;2023-07-29T01:49:13;24.63;;;12.77;;
151;SDS011;68;48.792;9.164;2023-07-29T01:51:40;23.80;;;11.87;;
151;SDS011;68;48.792;9.164;2023-07-29T01:54:08;25.80;;;15.93;;
151;SDS011;68;48.792;9.164;2023-07-29T01:56:35;27.40;;;15.33;;
151;SDS011;68;48.792;9.164;2023-07-29T01:59:03;24.63;;;11.73;;
151;SDS011;68;48.792;9.164;2023-07-29T02:01:30;33.70;;;10.70;;
151;SDS011;68;48.792;9.164;2023-07-29T02:03:57;23.23;;;11.20;;
151;SDS011;68;48.792;9.164;2023-07-29T02:06:23;26.17;;;16.17;;
151;SDS011;68;48.792;9.164;2023-07-29T02:08:51;22.00;;;11.67;;
151;SDS011;68;48.792;9.164;2023-07-29T02:11:18;28.67;;;12.80;;
151;SDS011;68;48.792;9.164;2023-07-29T02:13:45;22.73;;;13.47;;
151;SDS011;68;48.792;9.164;2023-07-29T02:16:14;23.23;;;13.60;;
151;SDS011;68;48.792;9.164;2023-07-29T02:18:40;27.17;;;12.20;;
151;SDS011;68;48.792;9.164;2023-07-29T02:21:07;28.73;;;13.50;;
151;SDS011;68;48.792;9.164;2023-07-29T02:23:34;20.60;;;9.87;;
151;SDS011;68;48.792;9.164;2023-07-29T02:26:00;23.60;;;12.60;;
151;SDS011;68;48.792;9.164;2023-07-29T02:28:27;24.63;;;13.37;;
151;SDS011;68;48.792;9.164;2023-07-29T02:31:08;23.30;;;12.40;;
151;SDS011;68;48.792;9.164;2023-07-29T02:33:38;28.97;;;17.00;;
151;SDS011;68;48.792;9.164;2023-07-29T02:36:04;24.97;;;14.67;;
151;SDS011;68;48.792;9.164;2023-07-29T02:38:31;24.17;;;13.60;;
151;SDS011;68;48.792;9.164;2023-07-29T02:40:58;23.63;;;10.10;;
151;SDS011;68;48.792;9.164;2023-07-29T02:43:25;23.30;;;13.27;;
151;SDS011;68;48.792;9.164;2023-07-29T02:45:51;27.53;;;13.10;;
151;SDS011;68;48.792;9.164;2023-07-29T02:48:18;23.27;;;12.60;;
151;SDS011;68;48.792;9.164;2023-07-29T02:50:46;26.50;;;14.87;;
151;SDS011;68;48.792;9.164;2023-07-29T02:53:13;26.87;;;13.73;;
151;SDS011;68;48.792;9.164;2023-07-29T02:55:40;26.70;;;14.93;;
151;SDS011;68;48.792;9.164;2023-07-29T02:58:07;26.33;;;15.77;;
151;SDS011;68;48.792;9.164;2023-07-29T03:00:33;22.30;;;10.57;;
151;SDS011;68;48.792;9.164;2023-07-29T03:03:00;22.47;;;11.77;;
151;SDS011;68;48.792;9.164;2023-07-29T03:05:27;23.87;;;13.47;;
151;SDS011;68;48.792;9.164;2023-07-29T03:07:55;26.53;;;16.10;;
151;SDS011;68;48.792;9.164;2023-07-29T03:10:23;25.23;;;14.60;;
151;SDS011;68;48.792;9.164;2023-07-29T03:12:50;22.57;;;12.07;;
151;SDS011;68;48.792;9.164;2023-07-29T03:15:22;22.00;;;11.37;;
151;SDS011;68;48.792;9.164;2023-07-29T03:17:49;26.27;;;16.50;;
151;SDS011;68;48.792;9.164;2023-07-29T03:20:16;28.60;;;14.80;;
151;SDS011;68;48.792;9.164;2023-07-29T03:22:43;24.17;;;12.63;;
151;SDS011;68;48.792;9.164;2023-07-29T03:25:12;33.03;;;16.77;;
151;SDS011;68;48.792;9.164;2023-07-29T03:27:39;22.73;;;13.50;;
151;SDS011;68;48.792;9.164;2023-07-29T03:30:07;26.57;;;16.27;;
151;SDS011;68;48.792;9.164;2023-07-29T03:32:34;24.77;;;14.67;;
151;SDS011;68;48.792;9.164;2023-07-29T03:35:00;25.47;;;13.03;;
151;SDS011;68;48.792;9.164;2023-07-29T03:37:27;25.47;;;15.20;;
151;SDS011;68;48.792;9.164;2023-07-29T03:39:54;23.40;;;12.63;;
151;SDS011;68;48.792;9.164;2023-07-29T03:42:22;23.70;;;11.27;;
151;SDS011;68;48.792;9.164;2023-07-29T03:44:49;22.20;;;10.90;;
151;SDS011;68;48.792;9.164;2023-07-29T03:47:16;28.27;;;16.80;;
151;SDS011;68;48.792;9.164;2023-07-29T03:49:43;26.73;;;14.53;;
151;SDS011;68;48.792;9.164;2023-07-29T03:52:10;40.83;;;15.00;;
151;SDS011;68;48.792;9.164;2023-07-29T03:54:37;24.90;;;13.07;;
151;SDS011;68;48.792;9.164;2023-07-29T03:57:03;24.93;;;14.33;;
151;SDS011;68;48.792;9.164;2023-07-29T03:59:32;25.17;;;13.60;;
151;SDS011;68;48.792;9.164;2023-07-29T04:01:59;25.80;;;16.07;;
151;SDS011;68;48.792;9.164;2023-07-29T04:04:26;26.27;;;15.37;;
151;SDS011;68;48.792;9.164;2023-07-29T04:06:53;28.80;;;15.33;;
151;SDS011;68;48.792;9.164;2023-07-29T04:09:20;28.23;;;13.80;;
151;SDS011;68;48.792;9.164;2023-07-29T04:11:48;25.53;;;13.37;;
151;SDS011;68;48.792;9.164;2023-07-29T04:14:15;28.50;;;14.83;;
151;SDS011;68;48.792;9.164;2023-07-29T04:16:45;27.33;;;15.47;;
151;SDS011;68;48.792;9.164;2023-07-29T04:19:14;31.23;;;14.60;;
151;SDS011;68;48.792;9.164;2023-07-29T04:21:41;25.97;;;15.07;;
151;SDS011;68;48.792;9.164;2023-07-29T04:24:07;26.13;;;15.73;;
151;SDS011;68;48.792;9.164;2023-07-29T04:26:34;24.80;;;13.17;;
151;SDS011;68;48.792;9.164;2023-07-29T04:29:04;26.03;;;14.17;;
151;SDS011;68;48.792;9.164;2023-07-29T04:31:32;23.27;;;11.73;;
151;SDS011;68;48.792;9.164;2023-07-29T04:34:00;28.27;;;16.30;;
151;SDS011;68;48.792;9.164;2023-07-29T04:36:27;24.50;;;14.67;;
151;SDS011;68;48.792;9.164;2023-07-29T04:38:54;29.53;;;18.27;;
151;SDS011;68;48.792;9.164;2023-07-29T04:41:21;30.23;;;16.20;;
151;SDS011;68;48.792;9.164;2023-07-29T04:43:47;25.67;;;15.20;;
151;SDS011;68;48.792;9.164;2023-07-29T04:46:15;29.37;;;17.83;;
151;SDS011;68;48.792;9.164;2023-07-29T04:48:42;25.97;;;14.90;;
151;SDS011;68;48.792;9.164;2023-07-29T04:51:10;30.60;;;17.20;;
151;SDS011;68;48.792;9.164;2023-07-29T04:53:36;29.50;;;18.60;;
151;SDS011;68;48.792;9.164;2023-07-29T04:56:03;25.30;;;13.70;;
151;SDS011;68;48.792;9.164;2023-07-29T04:58:30;26.97;;;13.80;;
151;SDS011;68;48.792;9.164;2023-07-29T05:01:00;25.67;;;13.57;;
151;SDS011;68;48.792;9.164;2023-07-29T05:03:27;29.63;;;17.47;;
151;SDS011;68;48.792;9.164;2023-07-29T05:05:55;28.57;;;17.27;;
151;SDS011;68;48.792;9.164;2023-07-29T05:08:24;30.63;;;16.63;;
151;SDS011;68;48.792;9.164;2023-07-29T05:10:51;32.60;;;17.53;;
151;SDS011;68;48.792;9.164;2023-07-29T05:13:19;29.17;;;17.60;;
151;SDS011;68;48.792;9.164;2023-07-29T05:15:46;32.40;;;15.37;;
151;SDS011;68;48.792;9.164;2023-07-29T05:18:14;30.03;;;17.40;;
151;SDS011;68;48.792;9.164;2023-07-29T05:20:41;26.37;;;14.50;;
151;SDS011;68;48.792;9.164;2023-07-29T05:23:08;29.00;;;15.30;;
151;SDS011;68;48.792;9.164;2023-07-29T05:25:36;27.57;;;16.20;;
151;SDS011;68;48.792;9.164;2023-07-29T05:28:03;31.07;;;16.37;;
151;SDS011;68;48.792;9.164;2023-07-29T05:30:33;29.30;;;16.40;;
151;SDS011;68;48.792;9.164;2023-07-29T05:33:02;25.47;;;14.17;;
151;SDS011;68;48.792;9.164;2023-07-29T05:35:29;31.70;;;18.50;;
151;SDS011;68;48.792;9.164;2023-07-29T05:37:56;28.70;;;18.17;;
151;SDS011;68;48.792;9.164;2023-07-29T05:40:23;38.17;;;19.93;;
151;SDS011;68;48.792;9.164;2023-07-29T05:42:51;25.80;;;14.20;;
151;SDS011;68;48.792;9.164;2023-07-29T05:45:18;26.93;;;15.60;;
151;SDS011;68;48.792;9.164;2023-07-29T05:47:45;28.03;;;14.70;;
151;SDS011;68;48.792;9.164;2023-07-29T05:50:12;33.30;;;14.20;;
151;SDS011;68;48.792;9.164;2023-07-29T05:52:39;31.80;;;18.53;;
151;SDS011;68;48.792;9.164;2023-07-29T05:55:06;32.10;;;15.80;;
151;SDS011;68;48.792;9.164;2023-07-29T05:57:34;28.00;;;16.23;;
151;SDS011;68;48.792;9.164;2023-07-29T06:00:02;31.23;;;18.47;;
151;SDS011;68;48.792;9.164;2023-07-29T06:02:30;33.63;;;17.37;;
151;SDS011;68;48.792;9.164;2023-07-29T06:04:56;28.47;;;14.50;;
151;SDS011;68;48.792;9.164;2023-07-29T06:07:23;34.37;;;15.20;;
151;SDS011;68;48.792;9.164;2023-07-29T06:09:54;26.67;;;14.60;;
151;SDS011;68;48.792;9.164;2023-07-29T06:12:21;30.67;;;17.80;;
151;SDS011;68;48.792;9.164;2023-07-29T06:14:48;26.03;;;14.57;;
151;SDS011;68;48.792;9.164;2023-07-29T06:17:16;26.97;;;13.90;;
151;SDS011;68;48.792;9.164;2023-07-29T06:19:42;25.60;;;14.90;;
151;SDS011;68;48.792;9.164;2023-07-29T06:22:09;25.67;;;14.47;;
151;SDS011;68;48.792;9.164;2023-07-29T06:24:36;23.07;;;10.80;;
151;SDS011;68;48.792;9.164;2023-07-29T06:27:03;26.40;;;13.50;;
151;SDS011;68;48.792;9.164;2023-07-29T06:29:30;27.77;;;16.33;;
151;SDS011;68;48.792;9.164;2023-07-29T06:31:58;23.47;;;11.37;;
151;SDS011;68;48.792;9.164;2023-07-29T06:34:26;25.27;;;12.13;;
151;SDS011;68;48.792;9.164;2023-07-29T06:36:53;24.10;;;11.90;;
151;SDS011;68;48.792;9.164;2023-07-29T06:39:20;31.90;;;13.37;;
151;SDS011;68;48.792;9.164;2023-07-29T06:41:47;28.73;;;14.43;;
151;SDS011;68;48.792;9.164;2023-07-29T06:44:13;23.27;;;12.77;;
151;SDS011;68;48.792;9.164;2023-07-29T06:46:40;23.47;;;11.80;;
151;SDS011;68;48.792;9.164;2023-07-29T06:49:07;28.47;;;14.47;;
151;SDS011;68;48.792;9.164;2023-07-29T06:51:35;24.77;;;13.37;;
151;SDS011;68;48.792;9.164;2023-07-29T06:54:02;25.40;;;14.00;;
151;SDS011;68;48.792;9.164;2023-07-29T06:56:29;28.40;;;15.10;;
151;SDS011;68;48.792;9.164;2023-07-29T06:58:56;23.60;;;13.10;;
151;SDS011;68;48.792;9.164;2023-07-29T07:01:22;27.73;;;13.17;;
151;SDS011;68;48.792;9.164;2023-07-29T07:03:49;25.30;;;14.50;;
151;SDS011;68;48.792;9.164;2023-07-29T07:06:19;30.00;;;15.27;;
151;SDS011;68;48.792;9.164;2023-07-29T07:08:47;24.97;;;13.00;;
151;SDS011;68;48.792;9.164;2023-07-29T07:11:14;30.00;;;17.13;;
151;SDS011;68;48.792;9.164;2023-07-29T07:13:41;25.20;;;11.33;;
151;SDS011;68;48.792;9.164;2023-07-29T07:16:08;26.37;;;14.30;;
151;SDS011;68;48.792;9.164;2023-07-29T07:18:35;24.80;;;14.10;;
151;SDS011;68;48.792;9.164;2023-07-29T07:21:01;26.20;;;12.50;;
151;SDS011;68;48.792;9.164;2023-07-29T07:23:28;24.87;;;12.77;;
151;SDS011;68;48.792;9.164;2023-07-29T07:25:56;28.60;;;14.73;;
151;SDS011;68;48.792;9.164;2023-07-29T07:28:23;24.30;;;13.63;;
151;SDS011;68;48.792;9.164;2023-07-29T07:30:50;24.00;;;14.80;;
151;SDS011;68;48.792;9.164;2023-07-29T07:33:17;23.90;;;12.40;;
151;SDS011;68;48.792;9.164;2023-07-29T07:35:44;25.10;;;13.33;;
151;SDS011;68;48.792;9.164;2023-07-29T07:38:10;22.80;;;13.07;;
151;SDS011;68;48.792;9.164;2023-07-29T07:40:37;23.10;;;10.83;;
151;SDS011;68;48.792;9.164;2023-07-29T07:43:08;25.73;;;12.67;;
151;SDS011;68;48.792;9.164;2023-07-29T07:45:35;26.57;;;12.83;;
151;SDS011;68;48.792;9.164;2023-07-29T07:48:02;22.70;;;13.60;;
151;SDS011;68;48.792;9.164;2023-07-29T07:50:29;24.17;;;9.90;;
151;SDS011;68;48.792;9.164;2023-07-29T07:52:56;26.63;;;15.83;;
151;SDS011;68;48.792;9.164;2023-07-29T07:55:23;25.37;;;15.27;;
151;SDS011;68;48.792;9.164;2023-07-29T07:57:50;24.20;;;10.17;;
151;SDS011;68;48.792;9.164;2023-07-29T08:00:18;23.20;;;10.77;;
151;SDS011;68;48.792;9.164;2023-07-29T08:02:45;22.90;;;10.83;;
151;SDS011;68;48.792;9.164;2023-07-29T08:05:12;22.53;;;11.47;;
151;SDS011;68;48.792;9.164;2023-07-29T08:07:39;24.37;;;11.60;;
151;SDS011;68;48.792;9.164;2023-07-29T08:10:09;20.37;;;9.60;;
151;SDS011;68;48.792;9.164;2023-07-29T08:12:35;20.37;;;11.20;;
151;SDS011;68;48.792;9.164;2023-07-29T08:15:02;22.63;;;11.43;;
151;SDS011;68;48.792;9.164;2023-07-29T08:17:32;23.10;;;10.80;;
151;SDS011;68;48.792;9.164;2023-07-29T08:19:59;22.80;;;10.90;;
151;SDS011;68;48.792;9.164;2023-07-29T08:22:26;22.53;;;10.17;;
151;SDS011;68;48.792;9.164;2023-07-29T08:24:52;23.57;;;13.67;;
151;SDS011;68;48.792;9.164;2023-07-29T08:27:19;20.83;;;8.40;;
151;SDS011;68;48.792;9.164;2023-07-29T08:29:46;21.03;;;8.63;;
151;SDS011;68;48.792;9.164;2023-07-29T08:32:12;22.13;;;8.97;;
151;SDS011;68;48.792;9.164;2023-07-29T08:34:40;22.03;;;9.23;;
151;SDS011;68;48.792;9.164;2023-07-29T08:37:07;20.67;;;8.47;;
151;SDS011;68;48.792;9.164;2023-07-29T08:39:34;23.30;;;9.80;;
151;SDS011;68;48.792;9.164;2023-07-29T08:42:02;18.80;;;7.40;;
151;SDS011;68;48.792;9.164;2023-07-29T08:44:35;22.13;;;10.00;;
151;SDS011;68;48.792;9.164;2023-07-29T08:47:06;23.87;;;9.00;;
151;SDS011;68;48.792;9.164;2023-07-29T08:49:33;25.80;;;11.63;;
151;SDS011;68;48.792;9.164;2023-07-29T08:52:01;19.87;;;8.13;;
151;SDS011;68;48.792;9.164;2023-07-29T08:54:29;24.63;;;8.10;;
151;SDS011;68;48.792;9.164;2023-07-29T08:56:57;18.40;;;7.40;;
151;SDS011;68;48.792;9.164;2023-07-29T08:59:24;19.10;;;6.60;;
151;SDS011;68;48.792;9.164;2023-07-29T09:01:52;19.33;;;7.53;;
151;SDS011;68;48.792;9.164;2023-07-29T09:04:22;21.03;;;8.50;;
151;SDS011;68;48.792;9.164;2023-07-29T09:06:50;17.73;;;6.57;;
151;SDS011;68;48.792;9.164;2023-07-29T09:09:18;23.53;;;6.77;;
151;SDS011;68;48.792;9.164;2023-07-29T09:11:46;16.77;;;5.07;;
151;SDS011;68;48.792;9.164;2023-07-29T09:14:13;19.20;;;6.50;;
151;SDS011;68;48.792;9.164;2023-07-29T09:16:40;17.33;;;5.03;;
151;SDS011;68;48.792;9.164;2023-07-29T09:19:08;18.57;;;5.20;;
151;SDS011;68;48.792;9.164;2023-07-29T09:21:38;17.30;;;4.97;;
151;SDS011;68;48.792;9.164;2023-07-29T09:24:05;19.03;;;5.87;;
151;SDS011;68;48.792;9.164;2023-07-29T09:26:34;18.60;;;5.90;;
151;SDS011;68;48.792;9.164;2023-07-29T09:29:01;17.63;;;5.30;;
151;SDS011;68;48.792;9.164;2023-07-29T09:31:29;16.60;;;5.27;;
151;SDS011;68;48.792;9.164;2023-07-29T09:33:56;18.50;;;5.47;;
151;SDS011;68;48.792;9.164;2023-07-29T09:36:24;18.40;;;6.00;;
151;SDS011;68;48.792;9.164;2023-07-29T09:38:54;17.00;;;5.30;;
151;SDS011;68;48.792;9.164;2023-07-29T09:41:22;17.87;;;4.60;;
151;SDS011;68;48.792;9.164;2023-07-29T09:43:54;17.63;;;5.07;;
151;SDS011;68;48.792;9.164;2023-07-29T09:46:23;20.53;;;4.77;;
151;SDS011;68;48.792;9.164;2023-07-29T09:48:52;18.07;;;6.53;;
151;SDS011;68;48.792;9.164;2023-07-29T09:51:20;19.53;;;5.77;;
151;SDS011;68;48.792;9.164;2023-07-29T09:53:48;17.10;;;5.37;;
151;SDS011;68;48.792;9.164;2023-07-29T09:56:17;19.80;;;5.43;;
151;SDS011;68;48.792;9.164;2023-07-29T09:58:44;16.00;;;5.03;;
151;SDS011;68;48.792;9.164;2023-07-29T10:01:13;17.20;;;5.60;;
151;SDS011;68;48.792;9.164;2023-07-29T10:03:40;16.27;;;4.80;;
151;SDS011;68;48.792;9.164;2023-07-29T10:06:07;16.60;;;4.97;;
151;SDS011;68;48.792;9.164;2023-07-29T10:08:34;15.93;;;4.67;;
151;SDS011;68;48.792;9.164;2023-07-29T10:11:03;16.50;;;4.70;;
151;SDS011;68;48.792;9.164;2023-07-29T10:13:31;17.00;;;5.40;;
151;SDS011;68;48.792;9.164;2023-07-29T10:15:59;18.10;;;4.93;;
151;SDS011;68;48.792;9.164;2023-07-29T10:18:29;18.77;;;4.40;;
151;SDS011;68;48.792;9.164;2023-07-29T10:20:57;16.93;;;4.87;;
151;SDS011;68;48.792;9.164;2023-07-29T10:23:25;16.80;;;4.63;;
151;SDS011;68;48.792;9.164;2023-07-29T10:25:55;18.13;;;5.30;;
151;SDS011;68;48.792;9.164;2023-07-29T10:28:29;17.17;;;5.07;;
151;SDS011;68;48.792;9.164;2023-07-29T10:30:57;19.47;;;5.70;;
151;SDS011;68;48.792;9.164;2023-07-29T10:33:24;16.17;;;4.27;;
151;SDS011;68;48.792;9.164;2023-07-29T10:35:53;16.90;;;4.80;;
151;SDS011;68;48.792;9.164;2023-07-29T10:38:21;17.40;;;4.93;;
151;SDS011;68;48.792;9.164;2023-07-29T10:40:50;18.57;;;6.70;;
151;SDS011;68;48.792;9.164;2023-07-29T10:43:23;17.30;;;5.40;;
151;SDS011;68;48.792;9.164;2023-07-29T10:45:51;19.50;;;4.50;;
151;SDS011;68;48.792;9.164;2023-07-29T10:48:40;18.37;;;5.13;;
151;SDS011;68;48.792;9.164;2023-07-29T10:51:28;19.87;;;5.77;;
151;SDS011;68;48.792;9.164;2023-07-29T10:53:59;17.17;;;5.70;;
151;SDS011;68;48.792;9.164;2023-07-29T10:56:28;16.80;;;4.70;;
151;SDS011;68;48.792;9.164;2023-07-29T10:58:56;15.90;;;4.03;;
151;SDS011;68;48.792;9.164;2023-07-29T11:01:27;15.57;;;4.30;;
151;SDS011;68;48.792;9.164;2023-07-29T11:04:01;16.20;;;4.10;;
151;SDS011;68;48.792;9.164;2023-07-29T11:09:52;18.93;;;5.13;;
151;SDS011;68;48.792;9.164;2023-07-29T11:12:39;17.50;;;4.30;;
151;SDS011;68;48.792;9.164;2023-07-29T11:15:15;16.10;;;4.03;;
151;SDS011;68;48.792;9.164;2023-07-29T11:17:44;16.10;;;4.17;;
151;SDS011;68;48.792;9.164;2023-07-29T11:20:12;16.90;;;4.47;;
151;SDS011;68;48.792;9.164;2023-07-29T11:22:41;18.17;;;3.50;;
151;SDS011;68;48.792;9.164;2023-07-29T11:25:09;18.53;;;3.37;;
151;SDS011;68;48.792;9.164;2023-07-29T11:27:37;18.73;;;4.40;;
151;SDS011;68;48.792;9.164;2023-07-29T11:30:04;22.03;;;5.03;;
151;SDS011;68;48.792;9.164;2023-07-29T11:32:33;17.40;;;4.30;;
151;SDS011;68;48.792;9.164;2023-07-29T11:35:01;16.07;;;4.10;;
151;SDS011;68;48.792;9.164;2023-07-29T11:37:29;17.57;;;5.07;;
151;SDS011;68;48.792;9.164;2023-07-29T11:39:57;19.13;;;4.70;;
151;SDS011;68;48.792;9.164;2023-07-29T11:42:24;15.97;;;3.97;;
151;SDS011;68;48.792;9.164;2023-07-29T11:44:53;18.00;;;4.40;;
151;SDS011;68;48.792;9.164;2023-07-29T11:47:22;17.83;;;4.23;;
151;SDS011;68;48.792;9.164;2023-07-29T11:49:48;16.10;;;4.00;;
151;SDS011;68;48.792;9.164;2023-07-29T11:52:15;17.00;;;4.10;;
151;SDS011;68;48.792;9.164;2023-07-29T11:54:44;17.20;;;4.60;;
151;SDS011;68;48.792;9.164;2023-07-29T11:57:12;17.30;;;4.10;;
151;SDS011;68;48.792;9.164;2023-07-29T11:59:40;17.13;;;4.70;;
151;SDS011;68;48.792;9.164;2023-07-29T12:02:08;17.13;;;4.10;;
151;SDS011;68;48.792;9.164;2023-07-29T12:04:37;17.67;;;4.10;;
151;SDS011;68;48.792;9.164;2023-07-29T12:07:05;18.57;;;4.07;;
151;SDS011;68;48.792;9.164;2023-07-29T12:09:32;16.17;;;3.83;;
151;SDS011;68;48.792;9.164;2023-07-29T12:11:59;16.40;;;3.67;;
151;SDS011;68;48.792;9.164;2023-07-29T12:14:29;18.53;;;4.53;;
151;SDS011;68;48.792;9.164;2023-07-29T12:16:59;15.73;;;3.40;;
151;SDS011;68;48.792;9.164;2023-07-29T12:19:30;16.20;;;3.50;;
151;SDS011;68;48.792;9.164;2023-07-29T12:21:58;16.27;;;3.57;;
151;SDS011;68;48.792;9.164;2023-07-29T12:24:24;16.50;;;3.70;;
151;SDS011;68;48.792;9.164;2023-07-29T12:26:52;16.97;;;3.70;;
151;SDS011;68;48.792;9.164;2023-07-29T12:29:19;18.03;;;3.37;;
151;SDS011;68;48.792;9.164;2023-07-29T12:31:47;16.53;;;3.70;;
151;SDS011;68;48.792;9.164;2023-07-29T12:34:17;15.87;;;3.33;;
151;SDS011;68;48.792;9.164;2023-07-29T12:36:45;19.63;;;3.80;;
151;SDS011;68;48.792;9.164;2023-07-29T12:39:17;16.10;;;3.40;;
151;SDS011;68;48.792;9.164;2023-07-29T12:41:45;16.90;;;3.57;;
151;SDS011;68;48.792;9.164;2023-07-29T12:44:12;18.30;;;3.50;;
151;SDS011;68;48.792;9.164;2023-07-29T12:46:38;16.67;;;3.30;;
151;SDS011;68;48.792;9.164;2023-07-29T12:49:07;18.20;;;4.03;;
151;SDS011;68;48.792;9.164;2023-07-29T12:51:33;18.43;;;3.37;;
151;SDS011;68;48.792;9.164;2023-07-29T12:54:01;17.50;;;3.20;;
151;SDS011;68;48.792;9.164;2023-07-29T12:56:29;16.80;;;3.10;;
151;SDS011;68;48.792;9.164;2023-07-29T12:58:55;19.53;;;3.40;;
151;SDS011;68;48.792;9.164;2023-07-29T13:01:23;17.33;;;3.43;;
151;SDS011;68;48.792;9.164;2023-07-29T13:03:49;16.83;;;3.20;;
151;SDS011;68;48.792;9.164;2023-07-29T13:06:18;23.93;;;3.90;;
151;SDS011;68;48.792;9.164;2023-07-29T13:08:45;21.57;;;3.70;;
151;SDS011;68;48.792;9.164;2023-07-29T13:11:12;17.10;;;3.87;;
151;SDS011;68;48.792;9.164;2023-07-29T13:13:39;17.17;;;3.40;;
151;SDS011;68;48.792;9.164;2023-07-29T13:16:06;22.63;;;4.10;;
151;SDS011;68;48.792;9.164;2023-07-29T13:18:32;16.90;;;3.20;;
151;SDS011;68;48.792;9.164;2023-07-29T13:21:00;17.00;;;3.40;;
151;SDS011;68;48.792;9.164;2023-07-29T13:23:28;21.40;;;3.70;;
151;SDS011;68;48.792;9.164;2023-07-29T13:25:55;17.13;;;3.77;;
151;SDS011;68;48.792;9.164;2023-07-29T13:28:21;18.00;;;3.50;;
151;SDS011;68;48.792;9.164;2023-07-29T13:30:48;17.73;;;3.70;;
151;SDS011;68;48.792;9.164;2023-07-29T13:33:15;19.13;;;3.47;;
151;SDS011;68;48.792;9.164;2023-07-29T13:35:42;21.70;;;3.77;;
151;SDS011;68;48.792;9.164;2023-07-29T13:38:09;16.80;;;3.40;;
151;SDS011;68;48.792;9.164;2023-07-29T13:40:37;18.07;;;3.63;;
151;SDS011;68;48.792;9.164;2023-07-29T13:43:04;20.03;;;4.07;;
151;SDS011;68;48.792;9.164;2023-07-29T13:45:30;16.40;;;3.30;;
151;SDS011;68;48.792;9.164;2023-07-29T13:47:57;16.50;;;3.20;;
151;SDS011;68;48.792;9.164;2023-07-29T13:50:24;17.57;;;3.90;;
151;SDS011;68;48.792;9.164;2023-07-29T13:52:51;18.80;;;3.43;;
151;SDS011;68;48.792;9.164;2023-07-29T13:55:17;16.83;;;3.60;;
151;SDS011;68;48.792;9.164;2023-07-29T13:57:46;19.10;;;3.43;;
151;SDS011;68;48.792;9.164;2023-07-29T14:00:13;17.60;;;3.60;;
151;SDS011;68;48.792;9.164;2023-07-29T14:02:41;17.80;;;4.23;;
151;SDS011;68;48.792;9.164;2023-07-29T14:05:08;18.43;;;3.63;;
151;SDS011;68;48.792;9.164;2023-07-29T14:07:36;17.60;;;3.90;;
151;SDS011;68;48.792;9.164;2023-07-29T14:10:03;16.60;;;3.60;;
151;SDS011;68;48.792;9.164;2023-07-29T14:12:30;17.30;;;4.13;;
151;SDS011;68;48.792;9.164;2023-07-29T14:14:58;17.13;;;4.10;;
151;SDS011;68;48.792;9.164;2023-07-29T14:17:25;18.37;;;3.87;;
151;SDS011;68;48.792;9.164;2023-07-29T14:19:52;18.00;;;4.03;;
151;SDS011;68;48.792;9.164;2023-07-29T14:22:19;16.93;;;3.50;;
151;SDS011;68;48.792;9.164;2023-07-29T14:24:46;16.57;;;3.47;;
151;SDS011;68;48.792;9.164;2023-07-29T14:27:12;18.33;;;3.30;;
151;SDS011;68;48.792;9.164;2023-07-29T14:29:41;19.47;;;4.87;;
151;SDS011;68;48.792;9.164;2023-07-29T14:32:09;18.43;;;3.57;;
151;SDS011;68;48.792;9.164;2023-07-29T14:34:36;16.13;;;3.50;;
151;SDS011;68;48.792;9.164;2023-07-29T14:37:03;16.77;;;3.77;;
151;SDS011;68;48.792;9.164;2023-07-29T14:39:31;18.23;;;4.67;;
151;SDS011;68;48.792;9.164;2023-07-29T14:41:57;17.37;;;3.80;;
151;SDS011;68;48.792;9.164;2023-07-29T14:44:24;18.30;;;4.00;;
151;SDS011;68;48.792;9.164;2023-07-29T14:46:51;18.90;;;4.00;;
151;SDS011;68;48.792;9.164;2023-07-29T14:49:20;17.43;;;3.87;;
151;SDS011;68;48.792;9.164;2023-07-29T14:51:47;18.23;;;4.00;;
151;SDS011;68;48.792;9.164;2023-07-29T14:54:13;16.60;;;3.50;;
151;SDS011;68;48.792;9.164;2023-07-29T14:56:40;17.27;;;3.87;;
151;SDS011;68;48.792;9.164;2023-07-29T14:59:07;16.70;;;3.40;;
151;SDS011;68;48.792;9.164;2023-07-29T15:01:34;18.33;;;3.57;;
151;SDS011;68;48.792;9.164;2023-07-29T15:04:00;16.40;;;3.60;;
151;SDS011;68;48.792;9.164;2023-07-29T15:06:29;18.63;;;4.07;;
151;SDS011;68;48.792;9.164;2023-07-29T15:08:55;16.67;;;4.00;;
151;SDS011;68;48.792;9.164;2023-07-29T15:11:22;16.77;;;3.57;;
151;SDS011;68;48.792;9.164;2023-07-29T15:13:49;18.23;;;3.93;;
151;SDS011;68;48.792;9.164;2023-07-29T15:16:16;17.40;;;4.10;;
151;SDS011;68;48.792;9.164;2023-07-29T15:18:42;18.20;;;3.27;;
151;SDS011;68;48.792;9.164;2023-07-29T15:21:09;19.73;;;3.97;;
151;SDS011;68;48.792;9.164;2023-07-29T15:23:37;17.20;;;3.80;;
151;SDS011;68;48.792;9.164;2023-07-29T15:26:04;17.70;;;3.90;;
151;SDS011;68;48.792;9.164;2023-07-29T15:28:31;20.73;;;3.90;;
151;SDS011;68;48.792;9.164;2023-07-29T15:30:57;17.50;;;4.00;;
151;SDS011;68;48.792;9.164;2023-07-29T15:33:24;16.57;;;3.37;;
151;SDS011;68;48.792;9.164;2023-07-29T15:35:51;21.70;;;3.83;;
151;SDS011;68;48.792;9.164;2023-07-29T15:38:18;16.40;;;3.90;;
151;SDS011;68;48.792;9.164;2023-07-29T15:40:46;17.40;;;4.00;;
151;SDS011;68;48.792;9.164;2023-07-29T15:43:16;16.70;;;3.70;;